sensor_id;sensor_type;location;lat;lon;timestamp;P1;durP1;ratioP1;P2;durP2;ratioP2
65096;SDS011;51686;46.758;4.356;2023-04-06T00:01:05;8.93;;;3.78;;
65096;SDS011;51686;46.758;4.356;2023-04-06T00:03:52;8.20;;;3.63;;
65096;SDS011;51686;46.758;4.356;2023-04-06T00:06:39;8.95;;;3.80;;
65096;SDS011;51686;46.758;4.356;2023-04-06T00:09:26;8.27;;;3.42;;
65096;SDS011;51686;46.758;4.356;2023-04-06T00:12:12;9.02;;;3.72;;
65096;SDS011;51686;46.758;4.356;2023-04-06T00:14:59;8.27;;;3.55;;
65096;SDS011;51686;46.758;4.356;2023-04-06T00:17:48;8.07;;;3.53;;
65096;SDS011;51686;46.758;4.356;2023-04-06T00:20:35;7.40;;;3.50;;
65096;SDS011;51686;46.758;4.356;2023-04-06T00:23:21;7.35;;;3.58;;
65096;SDS011;51686;46.758;4.356;2023-04-06T00:26:09;8.75;;;3.58;;
65096;SDS011;51686;46.758;4.356;2023-04-06T00:28:57;7.30;;;3.17;;
65096;SDS011;51686;46.758;4.356;2023-04-06T00:31:45;8.07;;;3.35;;
65096;SDS011;51686;46.758;4.356;2023-04-06T00:34:32;8.75;;;3.53;;
65096;SDS011;51686;46.758;4.356;2023-04-06T00:37:19;7.75;;;3.38;;
65096;SDS011;51686;46.758;4.356;2023-04-06T00:40:06;8.05;;;3.33;;
65096;SDS011;51686;46.758;4.356;2023-04-06T00:42:53;8.27;;;3.33;;
65096;SDS011;51686;46.758;4.356;2023-04-06T00:45:41;7.90;;;3.35;;
65096;SDS011;51686;46.758;4.356;2023-04-06T00:48:28;8.20;;;3.38;;
65096;SDS011;51686;46.758;4.356;2023-04-06T00:51:17;7.60;;;3.20;;
65096;SDS011;51686;46.758;4.356;2023-04-06T00:54:04;8.23;;;3.40;;
65096;SDS011;51686;46.758;4.356;2023-04-06T00:56:51;8.27;;;3.10;;
65096;SDS011;51686;46.758;4.356;2023-04-06T00:59:38;7.97;;;3.05;;
65096;SDS011;51686;46.758;4.356;2023-04-06T01:02:26;7.95;;;3.15;;
65096;SDS011;51686;46.758;4.356;2023-04-06T01:05:13;7.78;;;3.00;;
65096;SDS011;51686;46.758;4.356;2023-04-06T01:08:00;9.00;;;3.60;;
65096;SDS011;51686;46.758;4.356;2023-04-06T01:10:47;7.82;;;3.03;;
65096;SDS011;51686;46.758;4.356;2023-04-06T01:13:34;7.78;;;3.20;;
65096;SDS011;51686;46.758;4.356;2023-04-06T01:16:21;7.32;;;3.10;;
65096;SDS011;51686;46.758;4.356;2023-04-06T01:19:09;7.50;;;3.17;;
65096;SDS011;51686;46.758;4.356;2023-04-06T01:21:56;7.65;;;3.10;;
65096;SDS011;51686;46.758;4.356;2023-04-06T01:24:44;6.63;;;2.90;;
65096;SDS011;51686;46.758;4.356;2023-04-06T01:27:31;7.25;;;3.03;;
65096;SDS011;51686;46.758;4.356;2023-04-06T01:30:18;7.25;;;3.10;;
65096;SDS011;51686;46.758;4.356;2023-04-06T01:33:05;7.30;;;3.17;;
65096;SDS011;51686;46.758;4.356;2023-04-06T01:35:52;7.82;;;3.17;;
65096;SDS011;51686;46.758;4.356;2023-04-06T01:38:39;7.40;;;3.10;;
65096;SDS011;51686;46.758;4.356;2023-04-06T01:41:25;6.95;;;2.90;;
65096;SDS011;51686;46.758;4.356;2023-04-06T01:44:15;6.80;;;2.80;;
65096;SDS011;51686;46.758;4.356;2023-04-06T01:47:03;7.25;;;3.03;;
65096;SDS011;51686;46.758;4.356;2023-04-06T01:49:50;7.60;;;2.92;;
65096;SDS011;51686;46.758;4.356;2023-04-06T01:52:37;8.00;;;3.00;;
65096;SDS011;51686;46.758;4.356;2023-04-06T01:55:24;9.00;;;3.15;;
65096;SDS011;51686;46.758;4.356;2023-04-06T01:58:11;7.43;;;3.25;;
65096;SDS011;51686;46.758;4.356;2023-04-06T02:00:58;6.25;;;2.80;;
65096;SDS011;51686;46.758;4.356;2023-04-06T02:03:45;7.38;;;3.20;;
65096;SDS011;51686;46.758;4.356;2023-04-06T02:06:32;5.95;;;2.50;;
65096;SDS011;51686;46.758;4.356;2023-04-06T02:09:19;7.82;;;3.10;;
65096;SDS011;51686;46.758;4.356;2023-04-06T02:12:06;6.88;;;2.97;;
65096;SDS011;51686;46.758;4.356;2023-04-06T02:14:53;7.45;;;2.97;;
65096;SDS011;51686;46.758;4.356;2023-04-06T02:17:40;7.55;;;3.28;;
65096;SDS011;51686;46.758;4.356;2023-04-06T02:20:27;7.40;;;3.00;;
65096;SDS011;51686;46.758;4.356;2023-04-06T02:23:14;7.82;;;2.80;;
65096;SDS011;51686;46.758;4.356;2023-04-06T02:26:01;7.30;;;2.88;;
65096;SDS011;51686;46.758;4.356;2023-04-06T02:28:48;7.15;;;2.80;;
65096;SDS011;51686;46.758;4.356;2023-04-06T02:31:35;7.25;;;2.95;;
65096;SDS011;51686;46.758;4.356;2023-04-06T02:34:22;6.47;;;2.88;;
65096;SDS011;51686;46.758;4.356;2023-04-06T02:37:09;8.00;;;3.10;;
65096;SDS011;51686;46.758;4.356;2023-04-06T02:39:56;6.95;;;2.92;;
65096;SDS011;51686;46.758;4.356;2023-04-06T02:42:43;7.32;;;3.00;;
65096;SDS011;51686;46.758;4.356;2023-04-06T02:45:30;6.32;;;2.75;;
65096;SDS011;51686;46.758;4.356;2023-04-06T02:48:17;6.80;;;2.90;;
65096;SDS011;51686;46.758;4.356;2023-04-06T02:51:03;6.22;;;2.83;;
65096;SDS011;51686;46.758;4.356;2023-04-06T02:53:50;6.85;;;3.00;;
65096;SDS011;51686;46.758;4.356;2023-04-06T02:56:37;7.78;;;3.25;;
65096;SDS011;51686;46.758;4.356;2023-04-06T02:59:24;7.45;;;2.83;;
65096;SDS011;51686;46.758;4.356;2023-04-06T03:02:12;7.00;;;2.63;;
65096;SDS011;51686;46.758;4.356;2023-04-06T03:04:59;7.28;;;2.95;;
65096;SDS011;51686;46.758;4.356;2023-04-06T03:07:46;6.80;;;2.95;;
65096;SDS011;51686;46.758;4.356;2023-04-06T03:10:32;6.65;;;2.70;;
65096;SDS011;51686;46.758;4.356;2023-04-06T03:13:20;5.95;;;2.70;;
65096;SDS011;51686;46.758;4.356;2023-04-06T03:16:07;6.78;;;2.92;;
65096;SDS011;51686;46.758;4.356;2023-04-06T03:18:54;5.95;;;2.80;;
65096;SDS011;51686;46.758;4.356;2023-04-06T03:21:41;6.72;;;2.80;;
65096;SDS011;51686;46.758;4.356;2023-04-06T03:24:28;7.65;;;2.78;;
65096;SDS011;51686;46.758;4.356;2023-04-06T03:27:15;6.10;;;2.88;;
65096;SDS011;51686;46.758;4.356;2023-04-06T03:30:02;6.90;;;2.83;;
65096;SDS011;51686;46.758;4.356;2023-04-06T03:32:49;7.13;;;2.97;;
65096;SDS011;51686;46.758;4.356;2023-04-06T03:35:36;7.18;;;2.60;;
65096;SDS011;51686;46.758;4.356;2023-04-06T03:38:23;6.07;;;2.80;;
65096;SDS011;51686;46.758;4.356;2023-04-06T03:41:10;6.50;;;2.60;;
65096;SDS011;51686;46.758;4.356;2023-04-06T03:43:57;6.50;;;2.80;;
65096;SDS011;51686;46.758;4.356;2023-04-06T03:46:44;6.25;;;2.70;;
65096;SDS011;51686;46.758;4.356;2023-04-06T03:49:31;7.35;;;3.10;;
65096;SDS011;51686;46.758;4.356;2023-04-06T03:52:18;6.90;;;2.88;;
65096;SDS011;51686;46.758;4.356;2023-04-06T03:55:05;6.95;;;3.00;;
65096;SDS011;51686;46.758;4.356;2023-04-06T03:57:52;6.88;;;3.00;;
65096;SDS011;51686;46.758;4.356;2023-04-06T04:00:39;7.15;;;2.72;;
65096;SDS011;51686;46.758;4.356;2023-04-06T04:03:26;7.15;;;3.13;;
65096;SDS011;51686;46.758;4.356;2023-04-06T04:06:14;7.40;;;2.90;;
65096;SDS011;51686;46.758;4.356;2023-04-06T04:09:01;8.30;;;3.38;;
65096;SDS011;51686;46.758;4.356;2023-04-06T04:11:48;7.38;;;3.40;;
65096;SDS011;51686;46.758;4.356;2023-04-06T04:14:35;8.00;;;3.38;;
65096;SDS011;51686;46.758;4.356;2023-04-06T04:17:22;7.35;;;3.28;;
65096;SDS011;51686;46.758;4.356;2023-04-06T04:20:11;7.25;;;3.40;;
65096;SDS011;51686;46.758;4.356;2023-04-06T04:22:58;7.65;;;3.33;;
65096;SDS011;51686;46.758;4.356;2023-04-06T04:25:45;8.20;;;3.35;;
65096;SDS011;51686;46.758;4.356;2023-04-06T04:28:31;8.15;;;3.30;;
65096;SDS011;51686;46.758;4.356;2023-04-06T04:31:18;9.10;;;3.45;;
65096;SDS011;51686;46.758;4.356;2023-04-06T04:34:06;8.30;;;3.45;;
65096;SDS011;51686;46.758;4.356;2023-04-06T04:36:53;7.75;;;3.30;;
65096;SDS011;51686;46.758;4.356;2023-04-06T04:39:40;8.52;;;3.25;;
65096;SDS011;51686;46.758;4.356;2023-04-06T04:42:27;7.55;;;3.35;;
65096;SDS011;51686;46.758;4.356;2023-04-06T04:45:14;7.82;;;3.30;;
65096;SDS011;51686;46.758;4.356;2023-04-06T04:48:01;7.65;;;3.10;;
65096;SDS011;51686;46.758;4.356;2023-04-06T04:50:48;7.90;;;3.45;;
65096;SDS011;51686;46.758;4.356;2023-04-06T04:53:35;6.97;;;3.22;;
65096;SDS011;51686;46.758;4.356;2023-04-06T04:56:22;7.57;;;3.45;;
65096;SDS011;51686;46.758;4.356;2023-04-06T04:59:09;8.85;;;3.50;;
65096;SDS011;51686;46.758;4.356;2023-04-06T05:01:56;8.00;;;2.90;;
65096;SDS011;51686;46.758;4.356;2023-04-06T05:04:43;7.10;;;3.00;;
65096;SDS011;51686;46.758;4.356;2023-04-06T05:07:30;8.18;;;3.10;;
65096;SDS011;51686;46.758;4.356;2023-04-06T05:10:17;8.20;;;3.47;;
65096;SDS011;51686;46.758;4.356;2023-04-06T05:13:04;6.95;;;3.05;;
65096;SDS011;51686;46.758;4.356;2023-04-06T05:15:51;7.50;;;3.35;;
65096;SDS011;51686;46.758;4.356;2023-04-06T05:18:38;8.95;;;3.53;;
65096;SDS011;51686;46.758;4.356;2023-04-06T05:21:25;7.70;;;3.22;;
65096;SDS011;51686;46.758;4.356;2023-04-06T05:24:14;7.07;;;2.85;;
65096;SDS011;51686;46.758;4.356;2023-04-06T05:27:01;6.95;;;3.30;;
65096;SDS011;51686;46.758;4.356;2023-04-06T05:29:48;8.57;;;3.88;;
65096;SDS011;51686;46.758;4.356;2023-04-06T05:32:35;8.30;;;3.75;;
65096;SDS011;51686;46.758;4.356;2023-04-06T05:35:22;9.38;;;3.70;;
65096;SDS011;51686;46.758;4.356;2023-04-06T05:38:09;8.57;;;3.83;;
65096;SDS011;51686;46.758;4.356;2023-04-06T05:40:56;8.13;;;3.80;;
65096;SDS011;51686;46.758;4.356;2023-04-06T05:43:43;8.48;;;3.55;;
65096;SDS011;51686;46.758;4.356;2023-04-06T05:46:31;8.90;;;3.80;;
65096;SDS011;51686;46.758;4.356;2023-04-06T05:49:18;8.70;;;3.70;;
65096;SDS011;51686;46.758;4.356;2023-04-06T05:52:05;8.10;;;3.58;;
65096;SDS011;51686;46.758;4.356;2023-04-06T05:54:52;8.82;;;3.70;;
65096;SDS011;51686;46.758;4.356;2023-04-06T05:57:39;9.00;;;3.60;;
65096;SDS011;51686;46.758;4.356;2023-04-06T06:00:26;8.35;;;3.90;;
65096;SDS011;51686;46.758;4.356;2023-04-06T06:03:13;7.97;;;3.80;;
65096;SDS011;51686;46.758;4.356;2023-04-06T06:06:04;8.07;;;3.50;;
65096;SDS011;51686;46.758;4.356;2023-04-06T06:08:51;9.30;;;3.83;;
65096;SDS011;51686;46.758;4.356;2023-04-06T06:11:38;7.28;;;3.40;;
65096;SDS011;51686;46.758;4.356;2023-04-06T06:14:25;7.80;;;3.30;;
65096;SDS011;51686;46.758;4.356;2023-04-06T06:17:14;9.77;;;4.47;;
65096;SDS011;51686;46.758;4.356;2023-04-06T06:20:01;8.45;;;3.88;;
65096;SDS011;51686;46.758;4.356;2023-04-06T06:22:48;10.93;;;3.97;;
65096;SDS011;51686;46.758;4.356;2023-04-06T06:25:35;11.55;;;4.25;;
65096;SDS011;51686;46.758;4.356;2023-04-06T06:28:22;8.00;;;3.80;;
65096;SDS011;51686;46.758;4.356;2023-04-06T06:31:09;9.38;;;3.83;;
65096;SDS011;51686;46.758;4.356;2023-04-06T06:33:57;8.57;;;3.67;;
65096;SDS011;51686;46.758;4.356;2023-04-06T06:36:43;10.43;;;3.80;;
65096;SDS011;51686;46.758;4.356;2023-04-06T06:39:33;8.02;;;3.70;;
65096;SDS011;51686;46.758;4.356;2023-04-06T06:42:20;8.70;;;3.97;;
65096;SDS011;51686;46.758;4.356;2023-04-06T06:45:07;8.38;;;3.92;;
65096;SDS011;51686;46.758;4.356;2023-04-06T06:47:55;9.75;;;4.30;;
65096;SDS011;51686;46.758;4.356;2023-04-06T06:50:42;7.90;;;3.97;;
65096;SDS011;51686;46.758;4.356;2023-04-06T06:53:29;8.73;;;4.18;;
65096;SDS011;51686;46.758;4.356;2023-04-06T06:56:16;10.93;;;4.32;;
65096;SDS011;51686;46.758;4.356;2023-04-06T06:59:03;7.40;;;3.30;;
65096;SDS011;51686;46.758;4.356;2023-04-06T07:01:50;8.30;;;3.83;;
65096;SDS011;51686;46.758;4.356;2023-04-06T07:04:37;7.85;;;3.55;;
65096;SDS011;51686;46.758;4.356;2023-04-06T07:07:24;9.25;;;4.03;;
65096;SDS011;51686;46.758;4.356;2023-04-06T07:10:11;8.95;;;3.60;;
65096;SDS011;51686;46.758;4.356;2023-04-06T07:12:58;7.50;;;3.35;;
65096;SDS011;51686;46.758;4.356;2023-04-06T07:15:45;7.85;;;3.53;;
65096;SDS011;51686;46.758;4.356;2023-04-06T07:18:32;9.48;;;3.67;;
65096;SDS011;51686;46.758;4.356;2023-04-06T07:21:21;8.98;;;3.60;;
65096;SDS011;51686;46.758;4.356;2023-04-06T07:24:09;8.45;;;3.70;;
65096;SDS011;51686;46.758;4.356;2023-04-06T07:26:58;9.32;;;3.70;;
65096;SDS011;51686;46.758;4.356;2023-04-06T07:29:47;8.38;;;3.90;;
65096;SDS011;51686;46.758;4.356;2023-04-06T07:32:33;7.60;;;3.55;;
65096;SDS011;51686;46.758;4.356;2023-04-06T07:35:25;7.72;;;3.35;;
65096;SDS011;51686;46.758;4.356;2023-04-06T07:38:13;7.85;;;3.80;;
65096;SDS011;51686;46.758;4.356;2023-04-06T07:40:59;7.57;;;3.53;;
65096;SDS011;51686;46.758;4.356;2023-04-06T07:43:49;8.25;;;3.78;;
65096;SDS011;51686;46.758;4.356;2023-04-06T07:46:36;8.65;;;3.60;;
65096;SDS011;51686;46.758;4.356;2023-04-06T07:49:23;7.00;;;3.20;;
65096;SDS011;51686;46.758;4.356;2023-04-06T07:52:10;8.05;;;3.50;;
65096;SDS011;51686;46.758;4.356;2023-04-06T07:54:57;8.25;;;3.35;;
65096;SDS011;51686;46.758;4.356;2023-04-06T07:57:45;7.65;;;3.33;;
65096;SDS011;51686;46.758;4.356;2023-04-06T08:00:31;7.47;;;3.10;;
65096;SDS011;51686;46.758;4.356;2023-04-06T08:03:18;7.43;;;3.38;;
65096;SDS011;51686;46.758;4.356;2023-04-06T08:06:08;7.43;;;3.30;;
65096;SDS011;51686;46.758;4.356;2023-04-06T08:08:55;7.82;;;3.53;;
65096;SDS011;51686;46.758;4.356;2023-04-06T08:11:42;9.02;;;3.50;;
65096;SDS011;51686;46.758;4.356;2023-04-06T08:14:30;8.35;;;3.53;;
65096;SDS011;51686;46.758;4.356;2023-04-06T08:17:17;9.00;;;3.67;;
65096;SDS011;51686;46.758;4.356;2023-04-06T08:20:04;8.80;;;3.60;;
65096;SDS011;51686;46.758;4.356;2023-04-06T08:22:51;8.80;;;3.60;;
65096;SDS011;51686;46.758;4.356;2023-04-06T08:25:39;8.63;;;3.70;;
65096;SDS011;51686;46.758;4.356;2023-04-06T08:28:26;6.95;;;3.33;;
65096;SDS011;51686;46.758;4.356;2023-04-06T08:31:13;8.65;;;3.78;;
65096;SDS011;51686;46.758;4.356;2023-04-06T08:34:00;9.02;;;3.60;;
65096;SDS011;51686;46.758;4.356;2023-04-06T08:36:47;9.60;;;3.78;;
65096;SDS011;51686;46.758;4.356;2023-04-06T08:39:34;9.73;;;4.07;;
65096;SDS011;51686;46.758;4.356;2023-04-06T08:42:21;8.55;;;3.58;;
65096;SDS011;51686;46.758;4.356;2023-04-06T08:45:08;8.43;;;3.67;;
65096;SDS011;51686;46.758;4.356;2023-04-06T08:47:56;8.18;;;3.72;;
65096;SDS011;51686;46.758;4.356;2023-04-06T08:50:45;9.77;;;3.90;;
65096;SDS011;51686;46.758;4.356;2023-04-06T08:53:32;8.57;;;3.63;;
65096;SDS011;51686;46.758;4.356;2023-04-06T08:56:19;8.65;;;4.22;;
65096;SDS011;51686;46.758;4.356;2023-04-06T08:59:07;8.25;;;3.78;;
65096;SDS011;51686;46.758;4.356;2023-04-06T09:01:55;9.25;;;4.22;;
65096;SDS011;51686;46.758;4.356;2023-04-06T09:04:42;7.95;;;3.65;;
65096;SDS011;51686;46.758;4.356;2023-04-06T09:07:30;8.02;;;3.63;;
65096;SDS011;51686;46.758;4.356;2023-04-06T09:10:17;8.88;;;3.60;;
65096;SDS011;51686;46.758;4.356;2023-04-06T09:13:05;8.65;;;3.78;;
65096;SDS011;51686;46.758;4.356;2023-04-06T09:15:59;8.38;;;3.85;;
65096;SDS011;51686;46.758;4.356;2023-04-06T09:18:49;8.05;;;3.50;;
65096;SDS011;51686;46.758;4.356;2023-04-06T09:21:36;9.75;;;3.65;;
65096;SDS011;51686;46.758;4.356;2023-04-06T09:24:23;7.65;;;3.63;;
65096;SDS011;51686;46.758;4.356;2023-04-06T09:27:12;10.00;;;4.07;;
65096;SDS011;51686;46.758;4.356;2023-04-06T09:30:06;9.35;;;4.35;;
65096;SDS011;51686;46.758;4.356;2023-04-06T09:33:01;9.18;;;4.57;;
65096;SDS011;51686;46.758;4.356;2023-04-06T09:35:51;8.82;;;3.72;;
65096;SDS011;51686;46.758;4.356;2023-04-06T09:38:38;8.88;;;3.78;;
65096;SDS011;51686;46.758;4.356;2023-04-06T09:41:27;8.98;;;3.80;;
65096;SDS011;51686;46.758;4.356;2023-04-06T09:44:15;8.30;;;3.40;;
65096;SDS011;51686;46.758;4.356;2023-04-06T09:47:03;8.80;;;3.70;;
65096;SDS011;51686;46.758;4.356;2023-04-06T09:49:57;8.23;;;3.75;;
65096;SDS011;51686;46.758;4.356;2023-04-06T09:52:49;9.25;;;3.80;;
65096;SDS011;51686;46.758;4.356;2023-04-06T09:55:41;8.32;;;3.60;;
65096;SDS011;51686;46.758;4.356;2023-04-06T09:58:31;8.95;;;4.03;;
65096;SDS011;51686;46.758;4.356;2023-04-06T10:01:20;8.40;;;3.80;;
65096;SDS011;51686;46.758;4.356;2023-04-06T10:07:05;8.65;;;3.53;;
65096;SDS011;51686;46.758;4.356;2023-04-06T10:09:53;9.10;;;3.72;;
65096;SDS011;51686;46.758;4.356;2023-04-06T10:12:41;9.30;;;4.28;;
65096;SDS011;51686;46.758;4.356;2023-04-06T10:15:28;9.70;;;4.60;;
65096;SDS011;51686;46.758;4.356;2023-04-06T10:18:16;8.88;;;4.13;;
65096;SDS011;51686;46.758;4.356;2023-04-06T10:21:07;8.73;;;4.00;;
65096;SDS011;51686;46.758;4.356;2023-04-06T10:23:57;8.68;;;3.80;;
65096;SDS011;51686;46.758;4.356;2023-04-06T10:26:58;7.75;;;3.50;;
65096;SDS011;51686;46.758;4.356;2023-04-06T10:29:49;8.90;;;3.75;;
65096;SDS011;51686;46.758;4.356;2023-04-06T10:32:38;8.63;;;3.83;;
65096;SDS011;51686;46.758;4.356;2023-04-06T10:35:35;8.48;;;3.97;;
65096;SDS011;51686;46.758;4.356;2023-04-06T10:38:37;7.60;;;3.40;;
65096;SDS011;51686;46.758;4.356;2023-04-06T10:41:41;8.70;;;3.70;;
65096;SDS011;51686;46.758;4.356;2023-04-06T10:44:28;7.70;;;3.35;;
65096;SDS011;51686;46.758;4.356;2023-04-06T10:47:16;7.97;;;3.55;;
65096;SDS011;51686;46.758;4.356;2023-04-06T10:50:04;9.13;;;3.90;;
65096;SDS011;51686;46.758;4.356;2023-04-06T10:52:58;7.57;;;3.63;;
65096;SDS011;51686;46.758;4.356;2023-04-06T10:55:46;8.93;;;3.63;;
65096;SDS011;51686;46.758;4.356;2023-04-06T10:58:34;7.95;;;3.30;;
65096;SDS011;51686;46.758;4.356;2023-04-06T11:01:22;8.30;;;3.70;;
65096;SDS011;51686;46.758;4.356;2023-04-06T11:04:09;8.45;;;3.47;;
65096;SDS011;51686;46.758;4.356;2023-04-06T11:07:00;8.27;;;3.83;;
65096;SDS011;51686;46.758;4.356;2023-04-06T11:09:49;9.18;;;3.65;;
65096;SDS011;51686;46.758;4.356;2023-04-06T11:12:56;8.48;;;3.88;;
65096;SDS011;51686;46.758;4.356;2023-04-06T11:15:43;7.35;;;3.50;;
65096;SDS011;51686;46.758;4.356;2023-04-06T11:18:31;7.50;;;3.58;;
65096;SDS011;51686;46.758;4.356;2023-04-06T11:21:20;7.78;;;3.67;;
65096;SDS011;51686;46.758;4.356;2023-04-06T11:24:26;8.00;;;3.72;;
65096;SDS011;51686;46.758;4.356;2023-04-06T11:27:13;8.40;;;3.63;;
65096;SDS011;51686;46.758;4.356;2023-04-06T11:30:02;9.40;;;3.90;;
65096;SDS011;51686;46.758;4.356;2023-04-06T11:32:49;7.95;;;3.90;;
65096;SDS011;51686;46.758;4.356;2023-04-06T11:35:36;8.95;;;3.80;;
65096;SDS011;51686;46.758;4.356;2023-04-06T11:38:23;8.15;;;3.80;;
65096;SDS011;51686;46.758;4.356;2023-04-06T11:41:10;9.07;;;4.05;;
65096;SDS011;51686;46.758;4.356;2023-04-06T11:43:57;8.55;;;3.92;;
65096;SDS011;51686;46.758;4.356;2023-04-06T11:46:53;8.40;;;3.78;;
65096;SDS011;51686;46.758;4.356;2023-04-06T11:49:44;8.02;;;3.70;;
65096;SDS011;51686;46.758;4.356;2023-04-06T11:52:37;7.47;;;3.45;;
65096;SDS011;51686;46.758;4.356;2023-04-06T11:55:25;7.85;;;3.63;;
65096;SDS011;51686;46.758;4.356;2023-04-06T11:58:12;8.23;;;3.88;;
65096;SDS011;51686;46.758;4.356;2023-04-06T12:01:04;8.75;;;4.20;;
65096;SDS011;51686;46.758;4.356;2023-04-06T12:03:52;8.30;;;4.05;;
65096;SDS011;51686;46.758;4.356;2023-04-06T12:06:39;7.38;;;3.70;;
65096;SDS011;51686;46.758;4.356;2023-04-06T12:09:26;8.57;;;3.88;;
65096;SDS011;51686;46.758;4.356;2023-04-06T12:12:13;8.82;;;4.05;;
65096;SDS011;51686;46.758;4.356;2023-04-06T12:14:59;8.95;;;4.18;;
65096;SDS011;51686;46.758;4.356;2023-04-06T12:17:47;9.05;;;3.95;;
65096;SDS011;51686;46.758;4.356;2023-04-06T12:20:34;8.70;;;4.05;;
65096;SDS011;51686;46.758;4.356;2023-04-06T12:23:21;8.95;;;3.95;;
65096;SDS011;51686;46.758;4.356;2023-04-06T12:26:08;7.70;;;3.58;;
65096;SDS011;51686;46.758;4.356;2023-04-06T12:28:58;9.88;;;3.60;;
65096;SDS011;51686;46.758;4.356;2023-04-06T12:31:53;9.32;;;3.97;;
65096;SDS011;51686;46.758;4.356;2023-04-06T12:34:40;9.90;;;4.47;;
65096;SDS011;51686;46.758;4.356;2023-04-06T12:37:27;8.13;;;3.88;;
65096;SDS011;51686;46.758;4.356;2023-04-06T12:40:14;9.27;;;4.00;;
65096;SDS011;51686;46.758;4.356;2023-04-06T12:43:01;8.20;;;3.88;;
65096;SDS011;51686;46.758;4.356;2023-04-06T12:45:48;8.73;;;4.07;;
65096;SDS011;51686;46.758;4.356;2023-04-06T12:48:35;9.82;;;3.95;;
65096;SDS011;51686;46.758;4.356;2023-04-06T12:51:22;7.32;;;3.78;;
65096;SDS011;51686;46.758;4.356;2023-04-06T12:54:09;7.97;;;3.90;;
65096;SDS011;51686;46.758;4.356;2023-04-06T12:56:58;9.15;;;4.22;;
65096;SDS011;51686;46.758;4.356;2023-04-06T12:59:45;8.45;;;3.97;;
65096;SDS011;51686;46.758;4.356;2023-04-06T13:02:32;8.20;;;3.80;;
65096;SDS011;51686;46.758;4.356;2023-04-06T13:05:19;7.45;;;3.95;;
65096;SDS011;51686;46.758;4.356;2023-04-06T13:08:06;8.07;;;3.70;;
65096;SDS011;51686;46.758;4.356;2023-04-06T13:10:53;8.10;;;3.78;;
65096;SDS011;51686;46.758;4.356;2023-04-06T13:13:41;8.27;;;3.83;;
65096;SDS011;51686;46.758;4.356;2023-04-06T13:16:28;8.20;;;4.07;;
65096;SDS011;51686;46.758;4.356;2023-04-06T13:19:18;7.95;;;3.63;;
65096;SDS011;51686;46.758;4.356;2023-04-06T13:22:05;8.18;;;3.95;;
65096;SDS011;51686;46.758;4.356;2023-04-06T13:24:51;7.93;;;3.63;;
65096;SDS011;51686;46.758;4.356;2023-04-06T13:27:38;8.27;;;4.00;;
65096;SDS011;51686;46.758;4.356;2023-04-06T13:33:15;8.50;;;3.65;;
65096;SDS011;51686;46.758;4.356;2023-04-06T13:36:02;8.90;;;3.90;;
65096;SDS011;51686;46.758;4.356;2023-04-06T13:38:49;8.88;;;3.95;;
65096;SDS011;51686;46.758;4.356;2023-04-06T13:41:36;8.23;;;3.78;;
65096;SDS011;51686;46.758;4.356;2023-04-06T13:44:23;7.85;;;3.70;;
65096;SDS011;51686;46.758;4.356;2023-04-06T13:47:11;7.28;;;3.30;;
65096;SDS011;51686;46.758;4.356;2023-04-06T13:49:58;7.90;;;3.90;;
65096;SDS011;51686;46.758;4.356;2023-04-06T13:52:46;7.55;;;3.47;;
65096;SDS011;51686;46.758;4.356;2023-04-06T13:55:33;8.05;;;3.70;;
65096;SDS011;51686;46.758;4.356;2023-04-06T13:58:20;8.05;;;3.65;;
65096;SDS011;51686;46.758;4.356;2023-04-06T14:01:07;7.75;;;3.67;;
65096;SDS011;51686;46.758;4.356;2023-04-06T14:03:57;7.32;;;3.55;;
65096;SDS011;51686;46.758;4.356;2023-04-06T14:06:44;7.50;;;3.63;;
65096;SDS011;51686;46.758;4.356;2023-04-06T14:09:32;7.60;;;3.55;;
65096;SDS011;51686;46.758;4.356;2023-04-06T14:12:19;7.53;;;3.75;;
65096;SDS011;51686;46.758;4.356;2023-04-06T14:15:07;6.85;;;3.20;;
65096;SDS011;51686;46.758;4.356;2023-04-06T14:17:55;8.02;;;3.65;;
65096;SDS011;51686;46.758;4.356;2023-04-06T14:20:43;6.93;;;3.13;;
65096;SDS011;51686;46.758;4.356;2023-04-06T14:23:30;7.18;;;3.50;;
65096;SDS011;51686;46.758;4.356;2023-04-06T14:26:19;7.60;;;3.50;;
65096;SDS011;51686;46.758;4.356;2023-04-06T14:29:07;7.55;;;3.55;;
65096;SDS011;51686;46.758;4.356;2023-04-06T14:31:54;7.93;;;3.72;;
65096;SDS011;51686;46.758;4.356;2023-04-06T14:34:46;7.43;;;3.55;;
65096;SDS011;51686;46.758;4.356;2023-04-06T14:37:33;7.82;;;3.90;;
65096;SDS011;51686;46.758;4.356;2023-04-06T14:40:22;8.75;;;3.80;;
65096;SDS011;51686;46.758;4.356;2023-04-06T14:43:09;9.07;;;3.80;;
65096;SDS011;51686;46.758;4.356;2023-04-06T14:45:59;7.65;;;3.85;;
65096;SDS011;51686;46.758;4.356;2023-04-06T14:48:46;8.57;;;3.67;;
65096;SDS011;51686;46.758;4.356;2023-04-06T14:51:33;9.30;;;3.67;;
65096;SDS011;51686;46.758;4.356;2023-04-06T14:54:21;7.57;;;3.63;;
65096;SDS011;51686;46.758;4.356;2023-04-06T14:57:08;7.65;;;3.60;;
65096;SDS011;51686;46.758;4.356;2023-04-06T14:59:56;7.75;;;3.78;;
65096;SDS011;51686;46.758;4.356;2023-04-06T15:02:43;7.03;;;3.30;;
65096;SDS011;51686;46.758;4.356;2023-04-06T15:05:30;7.35;;;3.35;;
65096;SDS011;51686;46.758;4.356;2023-04-06T15:08:18;8.25;;;3.72;;
65096;SDS011;51686;46.758;4.356;2023-04-06T15:11:07;7.75;;;3.65;;
65096;SDS011;51686;46.758;4.356;2023-04-06T15:13:54;9.25;;;4.70;;
65096;SDS011;51686;46.758;4.356;2023-04-06T15:16:41;9.15;;;4.28;;
65096;SDS011;51686;46.758;4.356;2023-04-06T15:19:28;8.10;;;3.55;;
65096;SDS011;51686;46.758;4.356;2023-04-06T15:22:15;8.65;;;3.95;;
65096;SDS011;51686;46.758;4.356;2023-04-06T15:25:02;7.70;;;3.70;;
65096;SDS011;51686;46.758;4.356;2023-04-06T15:27:50;8.60;;;3.88;;
65096;SDS011;51686;46.758;4.356;2023-04-06T15:30:37;7.13;;;3.38;;
65096;SDS011;51686;46.758;4.356;2023-04-06T15:33:24;9.10;;;3.97;;
65096;SDS011;51686;46.758;4.356;2023-04-06T15:36:22;7.30;;;3.33;;
65096;SDS011;51686;46.758;4.356;2023-04-06T15:39:15;6.95;;;3.78;;
65096;SDS011;51686;46.758;4.356;2023-04-06T15:42:02;9.10;;;4.82;;
65096;SDS011;51686;46.758;4.356;2023-04-06T15:44:49;8.93;;;4.93;;
65096;SDS011;51686;46.758;4.356;2023-04-06T15:47:37;9.23;;;4.90;;
65096;SDS011;51686;46.758;4.356;2023-04-06T15:50:24;9.57;;;4.63;;
65096;SDS011;51686;46.758;4.356;2023-04-06T15:53:11;7.13;;;3.67;;
65096;SDS011;51686;46.758;4.356;2023-04-06T15:55:59;7.78;;;3.25;;
65096;SDS011;51686;46.758;4.356;2023-04-06T15:58:47;6.90;;;3.13;;
65096;SDS011;51686;46.758;4.356;2023-04-06T16:01:34;7.30;;;3.55;;
65096;SDS011;51686;46.758;4.356;2023-04-06T16:04:21;7.05;;;3.30;;
65096;SDS011;51686;46.758;4.356;2023-04-06T16:07:09;8.30;;;3.40;;
65096;SDS011;51686;46.758;4.356;2023-04-06T16:09:56;8.30;;;3.28;;
65096;SDS011;51686;46.758;4.356;2023-04-06T16:12:43;6.95;;;3.10;;
65096;SDS011;51686;46.758;4.356;2023-04-06T16:15:30;6.72;;;2.70;;
65096;SDS011;51686;46.758;4.356;2023-04-06T16:18:17;7.15;;;2.97;;
65096;SDS011;51686;46.758;4.356;2023-04-06T16:21:04;7.65;;;2.90;;
65096;SDS011;51686;46.758;4.356;2023-04-06T16:23:51;5.82;;;2.40;;
65096;SDS011;51686;46.758;4.356;2023-04-06T16:26:38;5.60;;;2.58;;
65096;SDS011;51686;46.758;4.356;2023-04-06T16:29:25;6.32;;;2.47;;
65096;SDS011;51686;46.758;4.356;2023-04-06T16:32:13;5.43;;;2.40;;
65096;SDS011;51686;46.758;4.356;2023-04-06T16:35:01;6.10;;;2.50;;
65096;SDS011;51686;46.758;4.356;2023-04-06T16:37:49;5.97;;;2.35;;
65096;SDS011;51686;46.758;4.356;2023-04-06T16:40:36;6.15;;;2.30;;
65096;SDS011;51686;46.758;4.356;2023-04-06T16:43:23;5.00;;;2.30;;
65096;SDS011;51686;46.758;4.356;2023-04-06T16:46:10;6.55;;;2.72;;
65096;SDS011;51686;46.758;4.356;2023-04-06T16:48:57;6.65;;;2.85;;
65096;SDS011;51686;46.758;4.356;2023-04-06T16:51:45;6.57;;;2.92;;
65096;SDS011;51686;46.758;4.356;2023-04-06T16:54:31;6.03;;;2.70;;
65096;SDS011;51686;46.758;4.356;2023-04-06T16:57:20;6.50;;;2.73;;